createdAt,value
2018-02-04T00:01:43.400Z,3.03
2018-02-04T00:04:10.878Z,3.02
2018-02-04T00:06:38.330Z,2.99
2018-02-04T00:09:05.798Z,3.02
2018-02-04T00:11:33.271Z,3.06
2018-02-04T00:14:00.885Z,3.04
2018-02-04T00:16:28.339Z,3.08
2018-02-04T00:18:55.820Z,3.07
2018-02-04T00:21:23.289Z,3.10
2018-02-04T00:23:50.746Z,3.10
2018-02-04T00:26:18.219Z,3.14
2018-02-04T00:28:45.730Z,3.19
2018-02-04T00:31:13.185Z,3.14
2018-02-04T00:33:40.642Z,3.17
2018-02-04T00:36:08.115Z,3.12
2018-02-04T00:38:35.573Z,3.17
2018-02-04T00:41:05.917Z,3.19
2018-02-04T00:43:33.379Z,3.19
2018-02-04T00:46:00.860Z,3.26
2018-02-04T00:48:28.323Z,3.25
2018-02-04T00:50:55.803Z,3.26
2018-02-04T00:53:23.273Z,3.30
2018-02-04T00:55:50.755Z,3.23
2018-02-04T00:58:18.215Z,3.20
2018-02-04T01:00:45.702Z,3.26
2018-02-04T01:03:13.159Z,3.17
2018-02-04T01:05:40.626Z,3.04
2018-02-04T01:08:08.089Z,3.00
2018-02-04T01:10:35.571Z,2.93
2018-02-04T01:13:03.023Z,2.95
2018-02-04T01:15:30.506Z,2.81
2018-02-04T01:17:57.967Z,2.78
2018-02-04T01:20:25.443Z,2.78
2018-02-04T01:22:52.907Z,2.80
2018-02-04T01:25:20.380Z,2.82
2018-02-04T01:27:47.835Z,2.80
2018-02-04T01:30:15.311Z,2.76
2018-02-04T01:32:42.767Z,2.79
2018-02-04T01:35:10.242Z,2.82
2018-02-04T01:37:37.699Z,2.81
2018-02-04T01:40:05.181Z,2.73
2018-02-04T01:42:32.643Z,2.75
2018-02-04T01:45:00.127Z,2.73
2018-02-04T01:47:27.574Z,2.74
2018-02-04T01:49:55.039Z,2.79
2018-02-04T01:52:22.510Z,2.87
2018-02-04T01:54:49.976Z,2.86
2018-02-04T01:57:17.446Z,2.84
2018-02-04T01:59:44.902Z,3.00
2018-02-04T02:02:12.387Z,2.96
2018-02-04T02:04:39.843Z,2.96
2018-02-04T02:07:07.319Z,3.02
2018-02-04T02:09:34.774Z,2.91
2018-02-04T02:12:02.251Z,2.86
2018-02-04T02:14:29.712Z,2.99
2018-02-04T02:16:57.198Z,2.83
2018-02-04T02:19:24.658Z,2.79
2018-02-04T02:21:52.162Z,2.72
2018-02-04T02:24:19.618Z,2.62
2018-02-04T02:26:47.100Z,2.58
2018-02-04T02:29:14.567Z,2.54
2018-02-04T02:31:42.052Z,2.51
2018-02-04T02:34:09.510Z,2.49
2018-02-04T02:36:36.992Z,2.42
2018-02-04T02:39:04.454Z,2.34
2018-02-04T02:41:31.940Z,2.30
2018-02-04T02:43:59.401Z,2.21
2018-02-04T02:46:26.883Z,2.13
2018-02-04T02:48:54.340Z,2.21
2018-02-04T02:51:21.814Z,2.26
2018-02-04T02:53:49.274Z,2.28
2018-02-04T02:56:16.755Z,2.15
2018-02-04T02:58:44.272Z,2.13
2018-02-04T03:01:11.762Z,2.09
2018-02-04T03:03:39.214Z,2.00
2018-02-04T03:06:06.688Z,2.14
2018-02-04T03:08:34.151Z,2.13
2018-02-04T03:11:01.607Z,2.08
2018-02-04T03:13:29.088Z,2.10
2018-02-04T03:15:56.560Z,2.08
2018-02-04T03:18:24.042Z,1.95
2018-02-04T03:20:51.555Z,2.02
2018-02-04T03:23:19.035Z,2.00
2018-02-04T03:25:46.494Z,1.96
2018-02-04T03:28:13.980Z,1.86
2018-02-04T03:30:41.446Z,1.90
2018-02-04T03:33:08.927Z,1.97
2018-02-04T03:38:10.251Z,1.64
2018-02-04T03:40:37.706Z,1.71
2018-02-04T03:43:05.183Z,1.76
2018-02-04T03:45:32.643Z,1.79
2018-02-04T03:48:00.133Z,1.82
2018-02-04T03:50:27.587Z,1.78
2018-02-04T03:52:55.059Z,1.77
2018-02-04T03:55:22.529Z,1.78
2018-02-04T03:57:50.038Z,1.80
2018-02-04T04:00:17.514Z,1.68
2018-02-04T04:02:44.982Z,1.61
2018-02-04T04:05:12.461Z,1.67
2018-02-04T04:07:39.939Z,1.56
2018-02-04T04:10:07.397Z,1.67
2018-02-04T04:12:34.876Z,1.60
2018-02-04T04:15:02.351Z,1.57
2018-02-04T04:17:29.847Z,1.58
2018-02-04T04:19:57.315Z,1.53
2018-02-04T04:22:24.786Z,1.56
2018-02-04T04:24:52.255Z,1.50
2018-02-04T04:27:19.725Z,1.46
2018-02-04T04:29:47.187Z,1.48
2018-02-04T04:32:14.659Z,1.31
2018-02-04T04:34:42.127Z,1.32
2018-02-04T04:37:09.602Z,1.29
2018-02-04T04:39:37.078Z,1.18
2018-02-04T04:42:04.537Z,1.25
2018-02-04T04:44:32.014Z,1.19
2018-02-04T04:46:59.479Z,1.19
2018-02-04T04:49:26.959Z,1.15
2018-02-04T04:51:54.418Z,1.09
2018-02-04T04:54:21.890Z,1.06
2018-02-04T04:56:49.393Z,1.11
2018-02-04T04:59:16.875Z,1.16
2018-02-04T05:01:44.343Z,0.95
2018-02-04T05:04:11.822Z,1.06
2018-02-04T05:06:39.292Z,1.05
2018-02-04T05:09:06.770Z,1.02
2018-02-04T05:11:34.231Z,1.04
2018-02-04T05:14:01.708Z,1.06
2018-02-04T05:16:29.166Z,0.93
2018-02-04T05:18:56.667Z,0.84
2018-02-04T05:21:24.120Z,0.92
2018-02-04T05:23:51.596Z,0.83
2018-02-04T05:26:19.054Z,0.87
2018-02-04T05:28:46.531Z,0.84
2018-02-04T05:31:13.987Z,0.88
2018-02-04T05:33:41.462Z,0.64
2018-02-04T05:36:08.923Z,0.70
2018-02-04T05:38:36.405Z,0.84
2018-02-04T05:41:03.867Z,0.73
2018-02-04T05:43:31.351Z,0.77
2018-02-04T05:45:58.823Z,0.74
2018-02-04T05:48:26.301Z,0.70
2018-02-04T05:50:53.779Z,0.75
2018-02-04T05:53:21.267Z,0.68
2018-02-04T05:55:48.735Z,0.78
2018-02-04T05:58:16.214Z,0.62
2018-02-04T06:00:43.676Z,0.67
2018-02-04T06:03:11.151Z,0.50
2018-02-04T06:05:38.617Z,0.58
2018-02-04T06:08:06.074Z,0.56
2018-02-04T06:10:33.552Z,0.55
2018-02-04T06:13:01.022Z,0.52
2018-02-04T06:15:28.531Z,0.54
2018-02-04T06:17:55.997Z,0.53
2018-02-04T06:20:23.487Z,0.35
2018-02-04T06:22:50.953Z,0.33
2018-02-04T06:25:18.441Z,0.40
2018-02-04T06:27:45.902Z,0.43
2018-02-04T06:30:13.383Z,0.39
2018-02-04T06:32:40.847Z,0.30
2018-02-04T06:35:08.330Z,0.37
2018-02-04T06:37:35.798Z,0.24
2018-02-04T06:40:03.283Z,0.30
2018-02-04T06:42:30.743Z,0.35
2018-02-04T06:44:58.227Z,0.39
2018-02-04T06:47:25.688Z,0.32
2018-02-04T06:49:53.184Z,0.32
2018-02-04T06:52:20.639Z,0.33
2018-02-04T06:54:48.110Z,0.35
2018-02-04T06:57:15.562Z,0.40
2018-02-04T06:59:43.047Z,0.35
2018-02-04T07:02:10.503Z,0.27
2018-02-04T07:04:37.982Z,0.35
2018-02-04T07:07:05.434Z,0.32
2018-02-04T07:09:32.916Z,0.32
2018-02-04T07:12:00.372Z,0.23
2018-02-04T07:14:27.844Z,0.24
2018-02-04T07:16:55.302Z,0.28
2018-02-04T07:19:22.772Z,0.32
2018-02-04T07:21:50.231Z,0.33
2018-02-04T07:24:17.699Z,0.32
2018-02-04T07:26:45.155Z,0.30
2018-02-04T07:29:12.630Z,0.22
2018-02-04T07:31:40.097Z,0.21
2018-02-04T07:34:07.558Z,0.21
2018-02-04T07:36:35.026Z,0.18
2018-02-04T07:39:02.475Z,0.29
2018-02-04T07:41:29.951Z,0.26
2018-02-04T07:43:57.412Z,0.30
2018-02-04T07:46:24.885Z,0.21
2018-02-04T07:48:52.330Z,0.21
2018-02-04T07:51:19.805Z,0.33
2018-02-04T07:53:47.258Z,0.23
2018-02-04T07:56:14.726Z,0.32
2018-02-04T07:58:42.217Z,0.40
2018-02-04T08:01:09.705Z,0.45
2018-02-04T08:03:37.167Z,0.41
2018-02-04T08:06:04.651Z,0.49
2018-02-04T08:08:32.107Z,0.53
2018-02-04T08:10:59.578Z,0.53
2018-02-04T08:13:27.037Z,0.58
2018-02-04T08:15:54.579Z,0.36
2018-02-04T08:18:22.027Z,0.51
2018-02-04T08:20:49.498Z,0.40
2018-02-04T08:23:16.955Z,0.55
2018-02-04T08:25:44.426Z,0.56
2018-02-04T08:28:11.887Z,0.44
2018-02-04T08:30:39.360Z,0.38
2018-02-04T08:33:06.815Z,0.39
2018-02-04T08:35:34.312Z,0.45
2018-02-04T08:38:01.759Z,0.52
2018-02-04T08:40:29.239Z,0.60
2018-02-04T08:42:56.763Z,0.70
2018-02-04T08:45:24.239Z,0.66
2018-02-04T08:47:51.686Z,0.57
2018-02-04T08:50:19.164Z,0.68
2018-02-04T08:52:46.618Z,0.74
2018-02-04T08:55:14.102Z,0.74
2018-02-04T08:57:41.563Z,0.69
2018-02-04T09:00:09.019Z,0.65
2018-02-04T09:02:36.502Z,0.73
2018-02-04T09:05:03.955Z,0.90
2018-02-04T09:07:31.443Z,0.92
2018-02-04T09:09:58.901Z,1.09
2018-02-04T09:12:26.370Z,1.00
2018-02-04T09:14:53.828Z,1.09
2018-02-04T09:17:22.214Z,1.16
2018-02-04T09:19:49.667Z,1.02
2018-02-04T09:22:17.146Z,1.07
2018-02-04T09:24:44.611Z,1.04
2018-02-04T09:27:12.098Z,1.24
2018-02-04T09:29:39.555Z,1.35
2018-02-04T09:32:07.027Z,1.35
2018-02-04T09:34:34.490Z,1.43
2018-02-04T09:37:01.967Z,1.55
2018-02-04T09:39:29.562Z,1.50
2018-02-04T09:41:57.043Z,1.70
2018-02-04T09:44:24.506Z,1.47
2018-02-04T09:46:52.026Z,1.11
2018-02-04T09:49:19.524Z,0.94
2018-02-04T09:51:46.999Z,1.29
2018-02-04T09:54:14.455Z,1.41
2018-02-04T09:56:41.934Z,1.54
2018-02-04T09:59:09.410Z,1.41
2018-02-04T10:01:36.888Z,1.59
2018-02-04T10:04:04.366Z,1.35
2018-02-04T10:06:31.834Z,1.41
2018-02-04T10:08:59.364Z,1.39
2018-02-04T10:11:26.835Z,1.82
2018-02-04T10:13:54.301Z,2.07
2018-02-04T10:16:21.766Z,1.73
2018-02-04T10:18:49.227Z,2.12
2018-02-04T10:21:16.714Z,1.72
2018-02-04T10:23:44.167Z,1.53
2018-02-04T10:26:11.628Z,1.73
2018-02-04T10:28:39.108Z,1.66
2018-02-04T10:31:06.566Z,1.66
2018-02-04T10:36:07.819Z,1.94
2018-02-04T10:38:35.304Z,1.82
2018-02-04T10:41:02.899Z,1.52
2018-02-04T10:43:30.375Z,1.54
2018-02-04T10:45:57.828Z,1.56
2018-02-04T10:48:25.299Z,1.37
2018-02-04T10:50:58.441Z,1.40
2018-02-04T10:53:25.911Z,1.38
2018-02-04T10:55:53.471Z,1.50
2018-02-04T10:58:20.944Z,1.51
2018-02-04T11:00:48.411Z,1.58
2018-02-04T11:03:15.886Z,1.73
2018-02-04T11:05:43.347Z,1.47
2018-02-04T11:08:10.827Z,1.55
2018-02-04T11:10:38.283Z,1.83
2018-02-04T11:13:05.766Z,1.85
2018-02-04T11:15:33.222Z,1.83
2018-02-04T11:18:00.708Z,1.64
2018-02-04T11:20:28.182Z,1.84
2018-02-04T11:22:55.655Z,1.80
2018-02-04T11:25:23.116Z,2.08
2018-02-04T11:27:50.636Z,2.31
2018-02-04T11:30:18.095Z,2.55
2018-02-04T11:32:45.579Z,2.48
2018-02-04T11:35:13.036Z,2.75
2018-02-04T11:37:40.505Z,2.56
2018-02-04T11:40:07.972Z,2.55
2018-02-04T11:42:35.547Z,2.64
2018-02-04T11:45:03.043Z,1.93
2018-02-04T11:47:30.507Z,2.20
2018-02-04T11:49:57.987Z,2.36
2018-02-04T11:52:25.454Z,2.15
2018-02-04T11:54:52.927Z,2.01
2018-02-04T11:57:20.387Z,1.95
2018-02-04T11:59:47.862Z,1.84
2018-02-04T12:02:15.321Z,1.69
2018-02-04T12:04:42.803Z,1.90
2018-02-04T12:07:10.270Z,1.92
2018-02-04T12:09:37.759Z,1.84
2018-02-04T12:12:05.225Z,1.81
2018-02-04T12:14:32.708Z,1.69
2018-02-04T12:17:00.174Z,1.72
2018-02-04T12:19:28.183Z,1.92
2018-02-04T12:21:55.638Z,2.17
2018-02-04T12:24:23.116Z,2.24
2018-02-04T12:26:50.576Z,2.24
2018-02-04T12:29:18.064Z,1.93
2018-02-04T12:31:45.527Z,2.10
2018-02-04T12:34:13.010Z,2.31
2018-02-04T12:36:40.473Z,1.90
2018-02-04T12:39:08.043Z,2.17
2018-02-04T12:41:35.518Z,2.11
2018-02-04T12:44:03.008Z,2.34
2018-02-04T12:46:30.471Z,2.28
2018-02-04T12:48:57.952Z,2.26
2018-02-04T12:51:25.423Z,2.13
2018-02-04T12:53:52.901Z,2.49
2018-02-04T12:56:20.403Z,2.54
2018-02-04T12:58:47.965Z,2.01
2018-02-04T13:01:15.605Z,2.15
2018-02-04T13:03:43.096Z,2.14
2018-02-04T13:06:10.567Z,2.21
2018-02-04T13:08:38.043Z,2.28
2018-02-04T13:11:05.530Z,2.05
2018-02-04T13:13:33.021Z,2.16
2018-02-04T13:16:00.508Z,2.09
2018-02-04T13:18:27.979Z,2.16
2018-02-04T13:20:55.470Z,2.25
2018-02-04T13:23:22.959Z,2.44
2018-02-04T13:25:50.453Z,2.42
2018-02-04T13:28:17.920Z,2.53
2018-02-04T13:30:45.402Z,2.31
2018-02-04T13:33:12.863Z,2.53
2018-02-04T13:35:40.346Z,2.44
2018-02-04T13:38:07.803Z,2.28
2018-02-04T13:40:35.295Z,2.31
2018-02-04T13:43:02.763Z,2.32
2018-02-04T13:45:30.248Z,2.48
2018-02-04T13:47:57.711Z,2.38
2018-02-04T13:50:25.182Z,2.36
2018-02-04T13:52:52.644Z,2.29
2018-02-04T13:55:20.123Z,2.26
2018-02-04T13:57:47.575Z,2.05
2018-02-04T14:00:15.047Z,2.06
2018-02-04T14:02:42.494Z,1.91
2018-02-04T14:05:09.977Z,1.79
2018-02-04T14:07:37.435Z,1.89
2018-02-04T14:10:04.906Z,1.62
2018-02-04T14:12:32.376Z,1.83
2018-02-04T14:14:59.851Z,1.74
2018-02-04T14:17:27.311Z,1.83
2018-02-04T14:19:54.791Z,1.75
2018-02-04T14:22:22.268Z,1.92
2018-02-04T14:24:49.747Z,2.04
2018-02-04T14:27:17.200Z,2.08
2018-02-04T14:29:45.526Z,1.98
2018-02-04T14:32:12.985Z,2.11
2018-02-04T14:34:40.448Z,2.09
2018-02-04T14:37:07.919Z,2.13
2018-02-04T14:39:35.382Z,2.25
2018-02-04T14:42:02.879Z,2.28
2018-02-04T14:44:30.339Z,2.24
2018-02-04T14:46:57.815Z,2.15
2018-02-04T14:49:25.266Z,3.40
2018-02-04T14:51:52.840Z,4.39
2018-02-04T14:54:20.305Z,5.10
2018-02-04T14:56:47.786Z,6.02
2018-02-04T14:59:15.240Z,6.98
2018-02-04T15:01:42.734Z,6.95
2018-02-04T15:04:10.198Z,6.70
2018-02-04T15:06:37.691Z,6.46
2018-02-04T15:09:05.155Z,6.96
2018-02-04T15:11:33.099Z,6.61
2018-02-04T15:14:00.610Z,4.98
2018-02-04T15:16:28.063Z,4.20
2018-02-04T15:18:55.519Z,3.75
2018-02-04T15:21:23.086Z,3.38
2018-02-04T15:23:50.538Z,3.37
2018-02-04T15:26:18.014Z,3.15
2018-02-04T15:28:45.471Z,3.13
2018-02-04T15:31:12.942Z,2.92
2018-02-04T15:33:40.390Z,2.83
2018-02-04T15:36:07.882Z,2.62
2018-02-04T15:38:35.633Z,2.71
2018-02-04T15:41:03.412Z,2.62
2018-02-04T15:43:30.902Z,2.47
2018-02-04T15:45:58.393Z,2.32
2018-02-04T15:48:25.928Z,2.31
2018-02-04T15:50:53.351Z,2.28
2018-02-04T15:53:20.843Z,2.33
2018-02-04T15:55:48.319Z,2.31
2018-02-04T15:58:15.775Z,2.10
2018-02-04T16:00:43.254Z,2.08
2018-02-04T16:03:10.736Z,2.00
2018-02-04T16:05:38.252Z,1.98
2018-02-04T16:08:05.750Z,1.88
2018-02-04T16:10:33.207Z,1.89
2018-02-04T16:13:00.690Z,1.92
2018-02-04T16:15:28.163Z,1.89
2018-02-04T16:17:55.646Z,1.92
2018-02-04T16:20:23.139Z,1.89
2018-02-04T16:22:50.635Z,1.92
2018-02-04T16:25:18.167Z,1.82
2018-02-04T16:27:45.652Z,1.76
2018-02-04T16:30:13.114Z,1.76
2018-02-04T16:32:40.586Z,1.71
2018-02-04T16:35:08.046Z,1.60
2018-02-04T16:37:35.531Z,1.53
2018-02-04T16:40:03.024Z,1.43
2018-02-04T16:42:30.514Z,1.30
2018-02-04T16:44:58.228Z,1.18
2018-02-04T16:47:25.711Z,1.05
2018-02-04T16:49:53.170Z,0.91
2018-02-04T16:52:20.679Z,0.80
2018-02-04T16:54:48.159Z,0.88
2018-02-04T16:57:15.659Z,0.84
2018-02-04T16:59:43.247Z,0.79
2018-02-04T17:02:10.727Z,0.74
2018-02-04T17:04:38.190Z,0.70
2018-02-04T17:07:05.661Z,0.71
2018-02-04T17:09:33.110Z,0.65
2018-02-04T17:12:00.653Z,0.64
2018-02-04T17:14:28.136Z,0.72
2018-02-04T17:16:55.626Z,0.65
2018-02-04T17:19:23.129Z,0.53
2018-02-04T17:21:50.620Z,0.54
2018-02-04T17:24:18.120Z,0.51
2018-02-04T17:26:45.588Z,0.54
2018-02-04T17:29:13.062Z,0.59
2018-02-04T17:31:40.521Z,0.63
2018-02-04T17:34:07.997Z,0.65
2018-02-04T17:36:35.454Z,0.76
2018-02-04T17:39:02.938Z,0.74
2018-02-04T17:41:30.408Z,0.77
2018-02-04T17:43:57.886Z,0.77
2018-02-04T17:46:25.354Z,0.76
2018-02-04T17:48:52.838Z,0.77
2018-02-04T17:51:20.348Z,0.77
2018-02-04T17:53:47.826Z,0.83
2018-02-04T17:56:15.278Z,0.88
2018-02-04T17:58:42.766Z,0.87
2018-02-04T18:01:10.246Z,0.89
2018-02-04T18:03:37.725Z,0.90
2018-02-04T18:06:05.198Z,0.93
2018-02-04T18:08:32.767Z,0.93
2018-02-04T18:11:00.775Z,0.98
2018-02-04T18:13:28.270Z,0.97
2018-02-04T18:15:55.724Z,1.03
2018-02-04T18:18:23.195Z,1.01
2018-02-04T18:20:50.646Z,1.00
2018-02-04T18:23:18.140Z,0.99
2018-02-04T18:25:45.603Z,1.09
2018-02-04T18:28:13.080Z,1.05
2018-02-04T18:30:40.539Z,1.02
2018-02-04T18:33:08.012Z,1.00
2018-02-04T18:35:35.464Z,0.98
2018-02-04T18:38:02.943Z,0.95
2018-02-04T18:40:38.531Z,0.94
2018-02-04T18:43:06.013Z,0.88
2018-02-04T18:45:33.508Z,0.87
2018-02-04T18:48:00.987Z,0.89
2018-02-04T18:50:28.467Z,0.90
2018-02-04T18:52:55.954Z,0.87
2018-02-04T18:55:23.416Z,0.81
2018-02-04T18:57:50.879Z,0.83
2018-02-04T19:00:18.628Z,0.79
2018-02-04T19:02:46.091Z,0.78
2018-02-04T19:05:13.589Z,0.77
2018-02-04T19:07:41.050Z,0.68
2018-02-04T19:10:09.386Z,0.66
2018-02-04T19:12:36.854Z,0.61
2018-02-04T19:15:04.331Z,0.59
2018-02-04T19:17:31.808Z,0.53
2018-02-04T19:19:59.356Z,0.53
2018-02-04T19:22:26.843Z,0.52
2018-02-04T19:24:54.335Z,0.46
2018-02-04T19:27:21.794Z,0.46
2018-02-04T19:29:49.294Z,0.38
2018-02-04T19:32:16.751Z,0.46
2018-02-04T19:34:44.223Z,0.40
2018-02-04T19:37:11.703Z,0.35
2018-02-04T19:39:39.846Z,0.35
2018-02-04T19:42:07.307Z,0.37
2018-02-04T19:44:35.079Z,0.41
2018-02-04T19:47:02.539Z,0.46
2018-02-04T19:49:30.531Z,0.47
2018-02-04T19:51:57.986Z,0.45
2018-02-04T19:54:25.480Z,0.50
2018-02-04T19:56:52.947Z,0.53
2018-02-04T19:59:20.419Z,0.54
2018-02-04T20:01:48.816Z,0.55
2018-02-04T20:04:16.314Z,0.55
2018-02-04T20:06:43.776Z,0.56
2018-02-04T20:09:11.255Z,0.56
2018-02-04T20:11:38.741Z,0.54
2018-02-04T20:14:06.232Z,0.55
2018-02-04T20:16:33.771Z,0.56
2018-02-04T20:19:01.432Z,0.58
2018-02-04T20:21:29.135Z,0.60
2018-02-04T20:23:56.597Z,0.55
2018-02-04T20:26:24.138Z,0.59
2018-02-04T20:28:51.595Z,0.58
2018-02-04T20:31:19.083Z,0.53
2018-02-04T20:33:58.339Z,0.55
2018-02-04T20:36:25.826Z,0.52
2018-02-04T20:38:53.282Z,0.59
2018-02-04T20:41:20.760Z,0.58
2018-02-04T20:43:48.230Z,0.57
2018-02-04T20:46:15.747Z,0.58
2018-02-04T20:48:43.210Z,0.63
2018-02-04T20:51:10.806Z,0.66
2018-02-04T20:53:38.267Z,0.64
2018-02-04T20:56:05.755Z,0.64
2018-02-04T20:58:35.617Z,0.64
2018-02-04T21:01:03.231Z,0.65
2018-02-04T21:03:30.693Z,0.67
2018-02-04T21:05:58.171Z,0.64
2018-02-04T21:08:25.626Z,0.64
2018-02-04T21:10:53.120Z,0.62
2018-02-04T21:13:20.580Z,0.62
2018-02-04T21:15:48.074Z,0.60
2018-02-04T21:18:15.543Z,0.59
2018-02-04T21:20:43.026Z,0.62
2018-02-04T21:23:10.503Z,0.60
2018-02-04T21:25:37.998Z,0.59
2018-02-04T21:28:05.459Z,0.57
2018-02-04T21:30:32.939Z,0.59
2018-02-04T21:33:00.401Z,0.63
2018-02-04T21:35:27.874Z,0.60
2018-02-04T21:37:55.334Z,0.65
2018-02-04T21:40:22.826Z,0.60
2018-02-04T21:42:50.296Z,0.64
2018-02-04T21:45:17.801Z,0.58
2018-02-04T21:47:45.264Z,0.61
2018-02-04T21:50:12.720Z,0.63
2018-02-04T21:52:40.260Z,0.69
2018-02-04T21:55:07.757Z,0.68
2018-02-04T21:57:35.259Z,0.70
2018-02-04T22:00:02.727Z,0.71
2018-02-04T22:02:30.204Z,0.66
2018-02-04T22:04:57.675Z,0.75
2018-02-04T22:07:25.165Z,0.72
2018-02-04T22:09:52.626Z,0.63
2018-02-04T22:12:20.100Z,0.61
2018-02-04T22:14:47.563Z,0.62
2018-02-04T22:17:15.044Z,0.65
2018-02-04T22:19:42.523Z,0.58
2018-02-04T22:22:10.001Z,0.59
2018-02-04T22:24:37.457Z,0.62
2018-02-04T22:27:04.942Z,0.66
2018-02-04T22:29:32.406Z,0.66
2018-02-04T22:31:59.894Z,0.56
2018-02-04T22:34:27.353Z,0.55
2018-02-04T22:36:54.834Z,0.63
2018-02-04T22:39:22.294Z,0.61
2018-02-04T22:41:49.767Z,0.63
2018-02-04T22:44:17.226Z,0.63
2018-02-04T22:46:44.719Z,0.60
2018-02-04T22:49:12.174Z,0.59
2018-02-04T22:51:39.658Z,0.62
2018-02-04T22:54:07.136Z,0.67
2018-02-04T22:56:34.619Z,0.66
2018-02-04T22:59:02.085Z,0.62
2018-02-04T23:01:29.579Z,0.63
2018-02-04T23:03:57.052Z,0.60
2018-02-04T23:06:24.532Z,0.57
2018-02-04T23:08:51.994Z,0.58
2018-02-04T23:11:19.459Z,0.61
2018-02-04T23:13:46.939Z,0.60
2018-02-04T23:16:14.394Z,0.56
2018-02-04T23:18:41.898Z,0.59
2018-02-04T23:21:09.368Z,0.49
2018-02-04T23:23:36.851Z,0.44
2018-02-04T23:26:04.321Z,0.48
2018-02-04T23:28:31.812Z,0.49
2018-02-04T23:30:59.279Z,0.46
2018-02-04T23:33:26.758Z,0.50
2018-02-04T23:35:54.230Z,0.44
2018-02-04T23:38:21.714Z,0.44
2018-02-04T23:40:49.190Z,0.44
2018-02-04T23:43:16.670Z,0.46
2018-02-04T23:45:44.137Z,0.46
2018-02-04T23:48:11.627Z,0.44
2018-02-04T23:50:39.086Z,0.39
2018-02-04T23:53:06.569Z,0.28
2018-02-04T23:55:34.031Z,0.17
2018-02-04T23:58:01.515Z,0.05
